Time;durP1;ratioP1;P1;durP2;ratioP2;P2;SDS_P1;SDS_P2;PMS_P1;PMS_P2;Temp;Humidity;BMP_temperature;BMP_pressure;BME280_temperature;BME280_humidity;BME280_pressure;Samples;Min_cycle;Max_cycle;Signal;HPM_P1;HPM_P2
2022/03/02 00:00:16;;;;;;;31.40;13.97;;;4.70;99.90;;;;;;5000491;28;20175;-79
2022/03/02 00:02:42;;;;;;;32.00;14.10;;;4.70;99.90;;;;;;5018815;28;20263;-79
2022/03/02 00:05:09;;;;;;;34.43;14.90;;;4.70;99.90;;;;;;5002570;28;20202;-79
2022/03/02 00:07:34;;;;;;;37.07;14.80;;;4.70;99.90;;;;;;5001207;28;20217;-79
2022/03/02 00:10:00;;;;;;;33.77;14.97;;;4.70;99.90;;;;;;5001309;28;20634;-79
2022/03/02 00:12:27;;;;;;;36.07;14.43;;;4.70;99.90;;;;;;5017776;28;20257;-79
2022/03/02 00:14:53;;;;;;;32.17;14.27;;;4.70;99.90;;;;;;4999483;28;20177;-79
2022/03/02 00:17:18;;;;;;;35.63;14.77;;;4.60;99.90;;;;;;5000550;28;20724;-79
2022/03/02 00:19:44;;;;;;;34.13;13.83;;;4.50;99.90;;;;;;5000386;28;20749;-79
2022/03/02 00:22:11;;;;;;;34.67;13.73;;;4.50;99.90;;;;;;4999806;28;20198;-81
2022/03/02 00:24:37;;;;;;;36.53;14.57;;;4.60;99.90;;;;;;5001283;28;20178;-80
2022/03/02 00:27:03;;;;;;;35.77;13.93;;;4.50;99.90;;;;;;5000703;28;20316;-79
2022/03/02 00:29:29;;;;;;;32.73;13.23;;;4.40;99.90;;;;;;5000303;28;20201;-83
2022/03/02 00:31:54;;;;;;;34.80;14.73;;;4.40;99.90;;;;;;5000269;28;20280;-83
2022/03/02 00:34:20;;;;;;;33.80;14.53;;;4.30;99.90;;;;;;5000260;28;20175;-83
2022/03/02 00:36:45;;;;;;;38.13;15.57;;;4.30;99.90;;;;;;5000010;28;20638;-82
2022/03/02 00:39:11;;;;;;;35.93;14.17;;;4.30;99.90;;;;;;4999873;28;20646;-84
2022/03/02 00:41:37;;;;;;;30.80;13.60;;;4.30;99.90;;;;;;4999994;28;20273;-83
2022/03/02 00:44:04;;;;;;;37.57;14.43;;;4.30;99.90;;;;;;4999845;28;20535;-82
2022/03/02 00:46:31;;;;;;;33.83;13.83;;;4.30;99.90;;;;;;5000527;28;20177;-82
2022/03/02 00:48:58;;;;;;;35.30;14.40;;;4.30;99.90;;;;;;5000368;28;20195;-83
2022/03/02 00:51:24;;;;;;;34.57;14.83;;;4.20;99.90;;;;;;4999630;28;20197;-82
2022/03/02 00:53:51;;;;;;;34.57;15.07;;;4.10;99.90;;;;;;5018264;28;20182;-82
2022/03/02 00:56:16;;;;;;;34.00;14.23;;;4.10;99.90;;;;;;5000167;28;20203;-82
2022/03/02 00:58:42;;;;;;;34.30;14.67;;;4.10;99.90;;;;;;4999398;28;20210;-83
2022/03/02 01:01:08;;;;;;;36.53;15.00;;;4.10;99.90;;;;;;4999283;28;20662;-82
2022/03/02 01:03:33;;;;;;;34.57;14.27;;;4.00;99.90;;;;;;4999803;28;20206;-83
2022/03/02 01:06:00;;;;;;;37.37;14.00;;;3.90;99.90;;;;;;4999880;28;20213;-82
2022/03/02 01:08:26;;;;;;;33.73;14.13;;;3.90;99.90;;;;;;4999758;28;20259;-82
2022/03/02 01:10:52;;;;;;;35.77;14.33;;;3.90;99.90;;;;;;4999713;28;20277;-83
2022/03/02 01:13:18;;;;;;;34.43;14.57;;;3.90;99.90;;;;;;4999126;28;20189;-83
2022/03/02 01:15:43;;;;;;;32.53;13.70;;;3.80;99.90;;;;;;4999657;28;20182;-83
2022/03/02 01:18:10;;;;;;;40.80;14.53;;;3.80;99.90;;;;;;4999268;28;20229;-82
2022/03/02 01:20:36;;;;;;;35.47;14.10;;;3.70;99.90;;;;;;4999795;28;20209;-83
2022/03/02 01:23:02;;;;;;;40.57;16.40;;;3.60;99.90;;;;;;4999716;28;20179;-82
2022/03/02 01:25:27;;;;;;;38.53;14.67;;;3.60;99.90;;;;;;4999883;28;20182;-82
2022/03/02 01:27:53;;;;;;;38.13;15.30;;;3.60;99.90;;;;;;4999958;28;20197;-83
2022/03/02 01:30:20;;;;;;;43.87;15.73;;;3.50;99.90;;;;;;4999423;28;20195;-82
2022/03/02 01:32:46;;;;;;;37.90;14.30;;;3.40;99.90;;;;;;4999057;28;20175;-83
2022/03/02 01:35:12;;;;;;;41.40;14.87;;;3.20;99.90;;;;;;4999191;28;20186;-82
2022/03/02 01:37:38;;;;;;;34.13;14.13;;;3.20;99.90;;;;;;4999533;28;20617;-82
2022/03/02 01:40:09;;;;;;;41.43;14.50;;;3.30;99.90;;;;;;4999606;28;20175;-82
2022/03/02 01:42:38;;;;;;;33.57;14.47;;;3.20;99.90;;;;;;5000111;28;20166;-82
2022/03/02 01:45:05;;;;;;;38.37;14.53;;;3.10;99.90;;;;;;4999404;28;20263;-82
2022/03/02 01:47:31;;;;;;;38.47;14.53;;;3.20;99.90;;;;;;4999815;28;20216;-82
2022/03/02 01:49:57;;;;;;;37.23;14.70;;;3.20;99.90;;;;;;4999816;28;20259;-82
2022/03/02 01:52:23;;;;;;;36.10;14.50;;;3.10;99.90;;;;;;4999766;28;20176;-83
2022/03/02 01:54:49;;;;;;;34.20;14.23;;;3.10;99.90;;;;;;4999926;28;20637;-83
2022/03/02 01:57:14;;;;;;;36.67;14.60;;;3.00;99.90;;;;;;5000491;28;20210;-82
2022/03/02 01:59:40;;;;;;;34.60;14.47;;;2.90;99.90;;;;;;4999665;28;20203;-83
2022/03/02 02:02:06;;;;;;;34.60;13.97;;;2.80;99.90;;;;;;4999762;28;20176;-82
2022/03/02 02:04:32;;;;;;;33.93;13.63;;;2.80;99.90;;;;;;4998952;28;20178;-82
2022/03/02 02:06:58;;;;;;;36.30;14.10;;;2.90;99.90;;;;;;4999172;28;20277;-82
2022/03/02 02:09:25;;;;;;;34.37;14.33;;;3.00;99.90;;;;;;4999295;28;20179;-82
2022/03/02 02:11:51;;;;;;;35.03;13.93;;;2.90;99.90;;;;;;5002368;28;20174;-82
2022/03/02 02:14:16;;;;;;;32.00;13.43;;;3.00;99.90;;;;;;5002202;28;20205;-82
2022/03/02 02:16:42;;;;;;;35.53;13.87;;;3.00;99.90;;;;;;5001981;28;20178;-82
2022/03/02 02:19:08;;;;;;;40.27;13.07;;;3.00;99.90;;;;;;5001861;28;20202;-82
2022/03/02 02:21:34;;;;;;;31.30;13.13;;;3.00;99.90;;;;;;5002490;28;20178;-82
2022/03/02 02:23:59;;;;;;;35.53;13.43;;;3.00;99.90;;;;;;5002303;28;20174;-83
2022/03/02 02:26:25;;;;;;;38.67;14.87;;;3.10;99.90;;;;;;5001603;28;20689;-82
2022/03/02 02:28:52;;;;;;;34.77;13.93;;;3.00;99.90;;;;;;5002398;28;20289;-82
2022/03/02 02:31:18;;;;;;;33.40;12.93;;;3.10;99.90;;;;;;5002257;28;20187;-82
2022/03/02 02:33:44;;;;;;;31.17;13.37;;;3.00;99.90;;;;;;5002500;28;20194;-83
2022/03/02 02:36:11;;;;;;;33.97;12.50;;;2.90;99.90;;;;;;5002193;28;20267;-83
2022/03/02 02:38:36;;;;;;;35.00;13.73;;;2.90;99.90;;;;;;5002675;28;20261;-83
2022/03/02 02:41:02;;;;;;;38.07;14.40;;;3.10;99.90;;;;;;5001307;28;20171;-83
2022/03/02 02:43:28;;;;;;;36.40;13.50;;;2.90;99.90;;;;;;5000983;28;20255;-79
2022/03/02 02:45:54;;;;;;;29.93;13.23;;;2.80;99.90;;;;;;5000614;28;20575;-79
2022/03/02 02:48:20;;;;;;;32.13;13.30;;;2.90;99.90;;;;;;4999360;28;20205;-79
2022/03/02 02:50:46;;;;;;;30.07;14.10;;;3.00;99.90;;;;;;4998474;28;20175;-79
2022/03/02 02:53:13;;;;;;;33.83;14.23;;;3.10;99.90;;;;;;4998517;28;20270;-79
2022/03/02 02:55:40;;;;;;;37.03;14.60;;;3.00;99.90;;;;;;4998817;28;20187;-79
2022/03/02 02:58:07;;;;;;;34.70;13.73;;;2.90;99.90;;;;;;4998256;28;20204;-79
2022/03/02 03:00:36;;;;;;;29.23;12.97;;;2.90;99.90;;;;;;4998938;28;20178;-79
2022/03/02 03:03:03;;;;;;;32.60;13.30;;;2.90;99.90;;;;;;4997888;28;20166;-79
2022/03/02 03:05:31;;;;;;;34.10;13.53;;;2.90;99.90;;;;;;4998016;28;20177;-79
2022/03/02 03:07:59;;;;;;;34.77;13.40;;;2.90;99.90;;;;;;4997953;28;20191;-79
2022/03/02 03:10:25;;;;;;;29.70;13.30;;;2.80;99.90;;;;;;4997972;28;20190;-79
2022/03/02 03:12:51;;;;;;;35.27;14.23;;;2.70;99.90;;;;;;4997539;28;20177;-79
2022/03/02 03:15:19;;;;;;;34.50;13.87;;;2.60;99.90;;;;;;4998191;28;20182;-79
2022/03/02 03:17:46;;;;;;;31.87;13.17;;;2.60;99.90;;;;;;4997748;28;20284;-79
2022/03/02 03:20:14;;;;;;;35.70;14.77;;;2.60;99.90;;;;;;4997506;28;20177;-79
2022/03/02 03:22:40;;;;;;;38.90;14.90;;;2.60;99.90;;;;;;4998051;28;20254;-79
2022/03/02 03:25:07;;;;;;;31.70;13.40;;;2.50;99.90;;;;;;4997643;28;20197;-79
2022/03/02 03:27:34;;;;;;;33.23;13.97;;;2.40;99.90;;;;;;4997144;28;20257;-79
2022/03/02 03:29:59;;;;;;;35.60;13.80;;;2.40;99.90;;;;;;4997531;28;20603;-79
2022/03/02 03:32:26;;;;;;;31.30;13.37;;;2.40;99.90;;;;;;4997541;28;20186;-83
2022/03/02 03:34:53;;;;;;;30.33;12.57;;;2.40;99.90;;;;;;5001321;28;20623;-79
2022/03/02 03:37:19;;;;;;;34.60;13.40;;;2.30;99.90;;;;;;5019129;28;20205;-79
2022/03/02 03:39:44;;;;;;;32.87;12.53;;;2.30;99.90;;;;;;5001493;28;20225;-79
2022/03/02 03:42:10;;;;;;;35.07;13.70;;;2.30;99.90;;;;;;5002025;28;20707;-79
2022/03/02 03:44:37;;;;;;;33.47;12.93;;;2.10;99.90;;;;;;5002555;28;20181;-80
2022/03/02 03:47:03;;;;;;;32.27;13.70;;;2.20;99.90;;;;;;5002612;28;20238;-80
2022/03/02 03:49:29;;;;;;;30.87;12.80;;;2.10;99.90;;;;;;4999143;28;20225;-80
2022/03/02 03:51:57;;;;;;;34.67;13.23;;;2.10;99.90;;;;;;4997256;28;20178;-80
2022/03/02 03:54:23;;;;;;;32.03;12.87;;;2.10;99.90;;;;;;4997718;28;20654;-80
2022/03/02 03:56:49;;;;;;;33.13;13.90;;;2.00;99.90;;;;;;4997159;28;20174;-79
2022/03/02 03:59:14;;;;;;;33.10;13.53;;;2.00;99.90;;;;;;4997386;28;20663;-79
2022/03/02 04:01:40;;;;;;;34.67;13.97;;;2.10;99.90;;;;;;4998995;28;20178;-79
2022/03/02 04:04:06;;;;;;;33.53;12.70;;;2.10;99.90;;;;;;4999407;28;20171;-79
2022/03/02 04:06:33;;;;;;;38.57;14.33;;;2.10;99.90;;;;;;4999586;28;20178;-80
2022/03/02 04:08:59;;;;;;;31.43;14.10;;;2.00;99.90;;;;;;5002903;28;20692;-81
2022/03/02 04:11:24;;;;;;;37.60;14.07;;;2.00;99.90;;;;;;5004652;28;20182;-81
2022/03/02 04:13:50;;;;;;;34.83;14.97;;;2.00;99.90;;;;;;5004370;28;20285;-81
2022/03/02 04:16:16;;;;;;;35.90;14.10;;;2.00;99.90;;;;;;5002822;28;20212;-79
2022/03/02 04:18:42;;;;;;;37.83;14.03;;;2.00;99.90;;;;;;5003223;28;20230;-79
2022/03/02 04:21:08;;;;;;;31.77;14.20;;;2.00;99.90;;;;;;5002426;28;20178;-79
2022/03/02 04:23:34;;;;;;;30.73;13.77;;;2.00;99.90;;;;;;5002950;28;20201;-79
2022/03/02 04:26:00;;;;;;;32.77;13.60;;;2.00;99.90;;;;;;5002805;28;20204;-79
2022/03/02 04:28:25;;;;;;;34.97;12.97;;;1.90;99.90;;;;;;5002234;28;20217;-79
2022/03/02 04:30:51;;;;;;;34.70;13.63;;;1.90;99.90;;;;;;5002186;28;20249;-79
2022/03/02 04:33:17;;;;;;;37.60;13.63;;;2.00;99.90;;;;;;5001970;28;20237;-79
2022/03/02 04:35:42;;;;;;;39.07;12.97;;;1.90;99.90;;;;;;5002580;28;20178;-79
2022/03/02 04:38:12;;;;;;;37.10;13.57;;;1.90;99.90;;;;;;5003361;28;20681;-79
2022/03/02 04:40:37;;;;;;;34.67;13.93;;;1.90;99.90;;;;;;5003261;28;20174;-79
2022/03/02 04:43:03;;;;;;;33.33;13.97;;;1.90;99.90;;;;;;5001777;28;20265;-79
2022/03/02 04:45:29;;;;;;;35.40;13.90;;;1.90;99.90;;;;;;5002040;28;20251;-79
2022/03/02 04:47:57;;;;;;;35.07;13.80;;;1.90;99.90;;;;;;5007403;28;20261;-81
2022/03/02 04:50:24;;;;;;;40.77;15.10;;;1.90;99.90;;;;;;5008693;28;20709;-81
2022/03/02 04:52:52;;;;;;;32.77;13.77;;;1.90;99.90;;;;;;5001908;28;20181;-79
2022/03/02 04:55:19;;;;;;;37.57;13.50;;;1.90;99.90;;;;;;5002528;28;20198;-79
2022/03/02 04:57:51;;;;;;;32.47;13.93;;;2.00;99.90;;;;;;5001449;28;20186;-79
2022/03/02 05:00:28;;;;;;;31.97;13.80;;;2.00;99.90;;;;;;5001699;28;20171;-79
2022/03/02 05:02:56;;;;;;;33.60;14.10;;;2.00;99.90;;;;;;5002018;28;20158;-81
2022/03/02 05:05:24;;;;;;;38.17;13.83;;;1.90;99.90;;;;;;5007193;28;20178;-81
2022/03/02 05:07:51;;;;;;;35.47;13.97;;;1.90;99.90;;;;;;5006865;28;20281;-80
2022/03/02 05:10:18;;;;;;;35.03;13.70;;;1.90;99.90;;;;;;5006020;28;20246;-79
2022/03/02 05:12:44;;;;;;;38.10;13.40;;;1.90;99.90;;;;;;5000570;28;20184;-78
2022/03/02 05:15:12;;;;;;;36.80;13.70;;;2.00;99.90;;;;;;5000684;28;20185;-79
2022/03/02 05:17:40;;;;;;;34.13;13.57;;;2.00;99.90;;;;;;5018714;28;20221;-79
2022/03/02 05:20:07;;;;;;;34.77;13.40;;;2.00;99.90;;;;;;5000283;28;20589;-78
2022/03/02 05:22:33;;;;;;;28.10;13.17;;;2.00;99.90;;;;;;4999985;28;20175;-78
2022/03/02 05:24:59;;;;;;;33.37;13.20;;;2.00;99.90;;;;;;5000952;28;20277;-78
2022/03/02 05:27:25;;;;;;;33.67;12.37;;;2.00;99.90;;;;;;5001050;28;20678;-78
2022/03/02 05:29:51;;;;;;;34.80;13.10;;;2.10;99.90;;;;;;4999447;28;20228;-78
2022/03/02 05:32:17;;;;;;;32.70;12.93;;;2.00;99.90;;;;;;4999603;28;20178;-78
2022/03/02 05:34:43;;;;;;;30.73;13.23;;;2.00;99.90;;;;;;4996818;28;20187;-78
2022/03/02 05:37:09;;;;;;;34.53;13.47;;;2.00;99.90;;;;;;4996511;28;20205;-78
2022/03/02 05:39:35;;;;;;;31.73;12.23;;;2.00;99.90;;;;;;4995419;28;20217;-78
2022/03/02 05:42:01;;;;;;;30.97;12.80;;;2.00;99.90;;;;;;4995803;28;20643;-78
2022/03/02 05:44:26;;;;;;;33.20;12.70;;;2.00;99.90;;;;;;4997013;28;20653;-78
2022/03/02 05:46:52;;;;;;;31.90;13.37;;;2.00;99.90;;;;;;4999068;28;20179;-78
2022/03/02 05:49:18;;;;;;;31.43;13.40;;;2.00;99.90;;;;;;4999206;28;20186;-78
2022/03/02 05:51:44;;;;;;;32.93;13.47;;;2.00;99.90;;;;;;4998839;28;20178;-78
2022/03/02 05:54:10;;;;;;;30.43;13.13;;;2.00;99.90;;;;;;5020251;28;20174;-80
2022/03/02 05:56:38;;;;;;;28.67;12.60;;;2.00;99.90;;;;;;5007710;28;20704;-80
2022/03/02 05:59:09;;;;;;;34.60;13.07;;;2.00;99.90;;;;;;5006485;28;20221;-78
2022/03/02 06:01:36;;;;;;;31.33;13.10;;;1.90;99.90;;;;;;4998640;28;20317;-78
2022/03/02 06:04:02;;;;;;;29.10;12.63;;;1.90;99.90;;;;;;4999276;28;20181;-78
2022/03/02 06:06:32;;;;;;;34.23;13.57;;;2.00;99.90;;;;;;4999718;28;20183;-78
2022/03/02 06:09:03;;;;;;;31.20;12.03;;;2.10;99.90;;;;;;5002927;28;20203;-78
2022/03/02 06:11:29;;;;;;;28.60;12.93;;;2.10;99.90;;;;;;5001552;28;20204;-78
2022/03/02 06:13:55;;;;;;;32.37;12.60;;;2.10;99.90;;;;;;5001562;28;20181;-78
2022/03/02 06:16:21;;;;;;;34.00;13.63;;;2.10;99.90;;;;;;5001180;28;20182;-78
2022/03/02 06:18:47;;;;;;;32.73;13.43;;;2.20;99.90;;;;;;5001526;28;20206;-78
2022/03/02 06:21:18;;;;;;;31.83;12.97;;;2.20;99.90;;;;;;5009402;28;20177;-80
2022/03/02 06:23:45;;;;;;;29.87;12.83;;;2.20;99.90;;;;;;5003149;28;20168;-78
2022/03/02 06:26:10;;;;;;;31.23;12.93;;;2.20;99.90;;;;;;5001867;28;20233;-78
2022/03/02 06:28:36;;;;;;;31.77;12.67;;;2.20;99.90;;;;;;5002645;28;20202;-79
2022/03/02 06:31:02;;;;;;;31.33;13.03;;;2.30;99.90;;;;;;5007927;28;20205;-78
2022/03/02 06:33:27;;;;;;;30.70;12.37;;;2.40;99.90;;;;;;5010242;28;20187;-80
2022/03/02 06:35:53;;;;;;;31.87;13.03;;;2.30;99.90;;;;;;5010681;28;20190;-80
2022/03/02 06:38:20;;;;;;;26.77;12.30;;;2.40;99.90;;;;;;5008797;28;20213;-79
2022/03/02 06:41:00;;;;;;;32.40;12.90;;;2.40;99.90;;;;;;5005149;28;20172;-78
2022/03/02 06:43:31;;;;;;;29.30;13.17;;;2.40;99.90;;;;;;5004010;28;20317;-78
2022/03/02 06:46:13;;;;;;;28.73;12.60;;;2.40;99.90;;;;;;5001947;28;20168;-78
2022/03/02 06:48:56;;;;;;;26.23;11.83;;;2.50;99.90;;;;;;5019433;28;20245;-78
2022/03/02 06:51:24;;;;;;;27.70;12.97;;;2.40;99.90;;;;;;5001626;28;20177;-79
2022/03/02 06:53:51;;;;;;;27.67;12.30;;;2.50;99.90;;;;;;5010198;28;20180;-80
2022/03/02 06:56:21;;;;;;;29.67;12.67;;;2.50;99.90;;;;;;5009786;28;20175;-80
2022/03/02 06:58:53;;;;;;;29.30;11.33;;;2.50;99.90;;;;;;5010749;28;20230;-80
2022/03/02 07:01:28;;;;;;;31.23;12.43;;;2.50;99.90;;;;;;5010367;28;20172;-80
2022/03/02 07:03:57;;;;;;;30.10;12.20;;;2.40;99.90;;;;;;5010664;28;20178;-79
2022/03/02 07:06:24;;;;;;;33.90;11.70;;;2.30;99.90;;;;;;5004022;28;20169;-80
2022/03/02 07:08:50;;;;;;;36.77;13.07;;;2.30;99.90;;;;;;5001653;28;20209;-80
2022/03/02 07:11:17;;;;;;;27.90;11.80;;;2.30;99.90;;;;;;5000792;28;20178;-81
2022/03/02 07:13:46;;;;;;;27.53;11.80;;;2.50;99.90;;;;;;5001307;28;20175;-81
2022/03/02 07:16:13;;;;;;;25.50;11.83;;;2.40;99.90;;;;;;5001459;28;20265;-79
2022/03/02 07:18:40;;;;;;;28.10;12.97;;;2.50;99.90;;;;;;4999875;28;20253;-80
2022/03/02 07:21:12;;;;;;;36.43;12.10;;;2.40;99.90;;;;;;4999983;28;20654;-80
2022/03/02 07:24:11;;;;;;;29.47;12.80;;;2.50;99.90;;;;;;5000744;28;20169;-79
2022/03/02 07:26:39;;;;;;;27.73;11.60;;;2.80;99.90;;;;;;5015773;28;20175;-79
2022/03/02 07:29:08;;;;;;;26.77;11.97;;;3.10;99.90;;;;;;4997171;28;20281;-79
2022/03/02 07:31:35;;;;;;;28.57;11.90;;;4.10;99.90;;;;;;4996818;28;20178;-78
2022/03/02 07:34:02;;;;;;;23.50;11.30;;;5.10;99.90;;;;;;4996740;28;20666;-78
2022/03/02 07:36:30;;;;;;;32.37;10.40;;;6.30;97.10;;;;;;4996749;28;20179;-78
2022/03/02 07:38:56;;;;;;;27.30;10.87;;;6.10;96.80;;;;;;4996674;28;20285;-78
2022/03/02 07:41:21;;;;;;;31.60;11.80;;;7.10;93.80;;;;;;4996226;28;20654;-79
2022/03/02 07:43:48;;;;;;;23.53;11.27;;;7.80;92.30;;;;;;4997077;28;20182;-78
2022/03/02 07:46:14;;;;;;;21.23;10.90;;;8.30;89.60;;;;;;4997391;28;20681;-79
2022/03/02 07:48:40;;;;;;;18.07;10.43;;;8.70;87.50;;;;;;4996741;28;20198;-77
2022/03/02 07:51:08;;;;;;;22.13;11.00;;;9.10;86.40;;;;;;4996365;28;20179;-76
2022/03/02 07:53:42;;;;;;;23.40;11.80;;;9.50;85.10;;;;;;4996543;28;20202;-76
2022/03/02 07:56:09;;;;;;;26.33;12.03;;;9.60;83.30;;;;;;4996331;28;20174;-77
2022/03/02 07:58:39;;;;;;;26.80;11.17;;;10.20;80.60;;;;;;4996721;28;20281;-77
2022/03/02 08:01:06;;;;;;;19.73;11.03;;;9.20;80.60;;;;;;4996372;28;20179;-76
2022/03/02 08:03:39;;;;;;;24.23;12.40;;;8.80;81.00;;;;;;4996281;28;20171;-76
2022/03/02 08:06:06;;;;;;;26.23;12.07;;;10.00;78.90;;;;;;4995682;28;20179;-76
2022/03/02 08:08:32;;;;;;;21.20;11.40;;;10.60;80.20;;;;;;4994391;28;20273;-76
2022/03/02 08:10:58;;;;;;;20.83;11.43;;;9.90;79.30;;;;;;4994019;28;20270;-76
2022/03/02 08:13:24;;;;;;;24.83;11.53;;;8.30;84.10;;;;;;4995055;28;20257;-76
2022/03/02 08:15:50;;;;;;;23.70;11.90;;;7.90;86.00;;;;;;4995676;28;20674;-76
2022/03/02 08:18:17;;;;;;;22.00;11.73;;;7.70;86.70;;;;;;4995478;28;20557;-76
2022/03/02 08:20:54;;;;;;;23.57;10.93;;;8.10;83.90;;;;;;4995432;28;20175;-76
2022/03/02 08:23:23;;;;;;;20.40;11.73;;;8.30;87.60;;;;;;4995576;28;20250;-76
2022/03/02 08:25:53;;;;;;;21.03;12.27;;;8.40;85.00;;;;;;4995216;28;20170;-76
2022/03/02 08:28:20;;;;;;;27.03;11.57;;;8.20;85.30;;;;;;5013101;28;20249;-76
2022/03/02 08:30:49;;;;;;;23.13;11.93;;;8.60;84.40;;;;;;4995256;28;20186;-78
2022/03/02 08:33:21;;;;;;;22.07;11.77;;;9.20;81.90;;;;;;4995461;28;20670;-77
2022/03/02 08:35:50;;;;;;;20.50;11.77;;;8.80;82.70;;;;;;4995250;28;20177;-78
2022/03/02 08:38:16;;;;;;;20.03;11.37;;;8.70;81.80;;;;;;4995174;28;20209;-77
2022/03/02 08:40:43;;;;;;;20.67;11.37;;;8.60;81.50;;;;;;4995243;28;20190;-77
2022/03/02 08:43:08;;;;;;;19.70;11.50;;;9.10;80.60;;;;;;4995284;28;20547;-77
2022/03/02 08:45:34;;;;;;;19.87;10.97;;;9.40;81.00;;;;;;4995048;28;20181;-77
2022/03/02 08:48:01;;;;;;;19.57;11.03;;;9.30;82.00;;;;;;4994948;28;20248;-77
2022/03/02 08:50:27;;;;;;;22.27;10.67;;;8.90;80.50;;;;;;4994852;28;20542;-77
2022/03/02 08:52:56;;;;;;;16.60;9.83;;;8.90;80.50;;;;;;4994823;28;20166;-77
2022/03/02 08:55:24;;;;;;;20.17;10.57;;;9.40;79.20;;;;;;4994915;28;20171;-77
2022/03/02 08:57:52;;;;;;;20.30;10.50;;;9.10;76.50;;;;;;4994711;28;20675;-77
2022/03/02 09:00:19;;;;;;;17.60;10.07;;;8.90;79.00;;;;;;4994780;28;20166;-77
2022/03/02 09:02:47;;;;;;;17.90;9.83;;;9.40;79.60;;;;;;4991364;28;20256;-77
2022/03/02 09:05:13;;;;;;;17.47;9.70;;;9.40;78.40;;;;;;4994462;28;20181;-77
2022/03/02 09:07:39;;;;;;;21.33;10.37;;;9.60;77.20;;;;;;4994253;28;20225;-77
2022/03/02 09:10:05;;;;;;;19.70;10.40;;;9.70;75.60;;;;;;4994542;28;20522;-77
2022/03/02 09:12:31;;;;;;;17.27;10.10;;;9.50;75.80;;;;;;4994264;28;20178;-77
2022/03/02 09:14:58;;;;;;;19.07;9.60;;;9.80;74.50;;;;;;4994189;28;20217;-77
2022/03/02 09:17:25;;;;;;;21.20;10.00;;;10.00;74.30;;;;;;4994332;28;20281;-77
2022/03/02 09:19:55;;;;;;;19.43;10.00;;;9.90;74.90;;;;;;4993272;28;20208;-77
2022/03/02 09:22:22;;;;;;;16.83;9.33;;;9.60;73.70;;;;;;4994332;28;20269;-77
2022/03/02 09:24:48;;;;;;;21.93;9.33;;;10.10;77.30;;;;;;4994328;28;20236;-77
2022/03/02 09:27:17;;;;;;;18.00;9.47;;;10.50;74.30;;;;;;4994211;28;20196;-77
2022/03/02 09:29:46;;;;;;;18.57;9.53;;;10.80;72.90;;;;;;4994003;28;20193;-77
2022/03/02 09:32:13;;;;;;;18.40;9.60;;;11.10;69.90;;;;;;4991949;28;20269;-77
2022/03/02 09:34:45;;;;;;;18.43;9.27;;;11.30;72.90;;;;;;4992788;28;20178;-77
2022/03/02 09:37:13;;;;;;;18.53;8.90;;;10.80;68.10;;;;;;4994887;28;20264;-77
2022/03/02 09:39:38;;;;;;;15.60;8.87;;;10.70;70.40;;;;;;4994331;28;20209;-78
2022/03/02 09:42:14;;;;;;;17.87;9.17;;;11.30;67.30;;;;;;4994232;28;20182;-77
2022/03/02 09:44:42;;;;;;;16.23;8.73;;;11.40;68.30;;;;;;4993997;28;20171;-77
2022/03/02 09:47:14;;;;;;;15.37;8.70;;;11.50;69.90;;;;;;4993817;28;20196;-76
2022/03/02 09:49:47;;;;;;;17.73;8.87;;;11.50;67.80;;;;;;4994887;28;20201;-77
2022/03/02 09:52:19;;;;;;;15.67;8.57;;;11.30;62.70;;;;;;4992833;28;20269;-77
2022/03/02 09:54:46;;;;;;;20.00;8.87;;;10.70;64.90;;;;;;4994165;28;20258;-77
2022/03/02 09:57:16;;;;;;;17.70;8.43;;;11.30;68.60;;;;;;4994080;28;20205;-77
2022/03/02 09:59:48;;;;;;;16.03;8.37;;;11.00;65.80;;;;;;4993940;28;20570;-79
2022/03/02 10:02:30;;;;;;;18.33;8.97;;;11.20;67.90;;;;;;4994355;28;20589;-78
2022/03/02 10:05:01;;;;;;;17.20;8.83;;;11.50;66.30;;;;;;4994394;28;20176;-78
2022/03/02 10:07:29;;;;;;;16.20;8.47;;;11.10;65.60;;;;;;4994025;28;20667;-78
2022/03/02 10:10:04;;;;;;;16.07;9.17;;;10.70;63.80;;;;;;4994089;28;20175;-79
2022/03/02 10:12:33;;;;;;;17.77;8.93;;;11.10;68.10;;;;;;4994094;28;20173;-78
2022/03/02 10:14:59;;;;;;;17.97;8.67;;;11.30;66.70;;;;;;4994501;28;20172;-78
2022/03/02 10:17:33;;;;;;;16.17;9.17;;;11.50;65.50;;;;;;4995306;28;20201;-80
2022/03/02 10:20:04;;;;;;;18.43;8.97;;;11.70;68.30;;;;;;4994456;28;20197;-78
2022/03/02 10:23:06;;;;;;;15.20;8.20;;;11.50;64.30;;;;;;4993851;28;20175;-78
2022/03/02 10:25:41;;;;;;;14.67;8.10;;;11.30;65.80;;;;;;4994103;28;20254;-78
2022/03/02 10:28:07;;;;;;;17.83;8.83;;;11.10;64.00;;;;;;4995717;28;20252;-79
2022/03/02 10:30:39;;;;;;;15.17;8.30;;;11.60;65.50;;;;;;4995522;28;20193;-79
2022/03/02 10:33:19;;;;;;;12.40;8.10;;;11.10;63.10;;;;;;5001350;28;20161;-80
2022/03/02 10:36:09;;;;;;;16.00;8.67;;;11.60;66.30;;;;;;5003102;28;20173;-80
2022/03/02 10:38:59;;;;;;;15.90;8.27;;;11.40;63.80;;;;;;4992987;28;20304;-80
2022/03/02 10:41:27;;;;;;;16.47;8.80;;;11.10;64.90;;;;;;4999701;28;20168;-79
2022/03/02 10:44:09;;;;;;;15.10;8.00;;;10.90;65.00;;;;;;5000138;28;20177;-79
2022/03/02 10:46:41;;;;;;;16.93;7.93;;;11.20;64.30;;;;;;4999592;28;20203;-79
2022/03/02 10:49:14;;;;;;;17.13;8.80;;;11.20;64.10;;;;;;4998599;28;20288;-79
2022/03/02 10:51:41;;;;;;;15.50;8.97;;;11.20;64.50;;;;;;4997964;28;20179;-78
2022/03/02 10:54:08;;;;;;;16.50;8.30;;;10.80;64.30;;;;;;4997722;28;20172;-78
2022/03/02 10:56:39;;;;;;;15.37;7.83;;;10.60;64.80;;;;;;4998270;28;20637;-79
2022/03/02 10:59:11;;;;;;;18.50;8.50;;;10.80;63.20;;;;;;4999064;28;20280;-78
2022/03/02 11:01:37;;;;;;;15.10;7.67;;;11.30;64.70;;;;;;4998288;28;20267;-78
2022/03/02 11:04:06;;;;;;;17.03;8.33;;;10.90;62.40;;;;;;4999225;28;20181;-79
2022/03/02 11:06:32;;;;;;;16.80;8.70;;;11.10;62.60;;;;;;4997824;28;20264;-79
2022/03/02 11:09:02;;;;;;;17.83;8.23;;;11.00;64.20;;;;;;4997640;28;20248;-78
2022/03/02 11:11:29;;;;;;;15.07;8.03;;;10.80;65.00;;;;;;4996633;28;20190;-78
2022/03/02 11:13:55;;;;;;;17.50;8.40;;;11.10;64.30;;;;;;4996814;28;20179;-78
2022/03/02 11:16:22;;;;;;;13.57;7.83;;;11.20;63.40;;;;;;4997939;28;20320;-79
2022/03/02 11:18:51;;;;;;;13.33;7.63;;;11.40;62.60;;;;;;4999243;28;20209;-79
2022/03/02 11:21:21;;;;;;;14.77;8.17;;;11.30;64.60;;;;;;4998077;28;20179;-79
2022/03/02 11:23:55;;;;;;;12.77;7.60;;;11.30;62.70;;;;;;4997000;28;20638;-78
2022/03/02 11:26:23;;;;;;;17.37;8.27;;;11.40;61.50;;;;;;4997144;28;20220;-78
2022/03/02 11:28:54;;;;;;;15.33;8.10;;;11.70;63.20;;;;;;4997395;28;20197;-76
2022/03/02 11:31:26;;;;;;;16.43;7.70;;;11.70;63.30;;;;;;4996534;28;20282;-76
2022/03/02 11:34:38;;;;;;;14.97;7.63;;;11.70;61.80;;;;;;4996672;28;20182;-76
2022/03/02 11:37:05;;;;;;;13.87;7.50;;;11.80;59.40;;;;;;4953921;28;20193;-76
2022/03/02 11:39:32;;;;;;;16.03;7.90;;;11.60;60.80;;;;;;4996558;28;20690;-76
2022/03/02 11:42:04;;;;;;;14.50;8.00;;;11.60;62.60;;;;;;4996338;28;20183;-76
2022/03/02 11:44:34;;;;;;;13.97;7.53;;;11.80;65.00;;;;;;4996212;28;20171;-76
2022/03/02 11:47:06;;;;;;;15.00;7.50;;;11.60;60.60;;;;;;4996490;28;20710;-76
2022/03/02 11:49:38;;;;;;;14.30;7.20;;;11.50;59.70;;;;;;4996870;28;20166;-78
2022/03/02 11:52:05;;;;;;;16.63;7.50;;;11.40;60.30;;;;;;4996459;28;20203;-79
2022/03/02 11:55:08;;;;;;;16.03;7.77;;;11.70;60.70;;;;;;4996783;28;20174;-78
2022/03/02 11:57:42;;;;;;;13.67;7.20;;;11.60;61.20;;;;;;4956679;28;20205;-79
2022/03/02 12:00:24;;;;;;;12.13;7.33;;;12.10;59.60;;;;;;4997825;28;20191;-79
2022/03/02 12:02:52;;;;;;;13.43;7.50;;;12.40;58.40;;;;;;4997710;28;20246;-79
2022/03/02 12:05:22;;;;;;;11.60;7.07;;;12.40;59.20;;;;;;4997293;28;20654;-78
2022/03/02 12:07:59;;;;;;;11.47;7.30;;;12.30;60.40;;;;;;4997118;28;20290;-78
2022/03/02 12:10:30;;;;;;;12.13;7.70;;;12.20;59.90;;;;;;4996349;28;20198;-79
2022/03/02 12:12:56;;;;;;;13.70;7.20;;;12.20;61.20;;;;;;4996513;28;20265;-78
2022/03/02 12:15:24;;;;;;;11.50;7.57;;;12.30;61.30;;;;;;5013826;28;20216;-78
2022/03/02 12:17:52;;;;;;;15.23;7.90;;;12.10;61.00;;;;;;4995742;28;20201;-76
2022/03/02 12:20:24;;;;;;;15.87;8.33;;;12.20;60.40;;;;;;4995617;28;20234;-78
2022/03/02 12:22:55;;;;;;;14.73;8.00;;;12.30;61.30;;;;;;4995633;28;20167;-75
2022/03/02 12:25:24;;;;;;;12.50;7.50;;;12.40;59.90;;;;;;4995805;28;20217;-76
2022/03/02 12:28:08;;;;;;;12.83;6.97;;;12.80;59.20;;;;;;4995561;28;20191;-76
2022/03/02 12:30:36;;;;;;;14.53;7.23;;;13.80;54.80;;;;;;4995112;28;20193;-76
2022/03/02 12:33:04;;;;;;;13.10;8.47;;;13.80;57.50;;;;;;4995236;28;20235;-76
2022/03/02 12:35:30;;;;;;;12.30;7.43;;;13.00;57.10;;;;;;4995287;28;20181;-76
2022/03/02 12:37:59;;;;;;;13.20;7.23;;;12.30;56.30;;;;;;4995411;28;20191;-76
2022/03/02 12:40:31;;;;;;;11.23;6.90;;;12.40;57.50;;;;;;4994991;28;20218;-76